Supplee, WA

5:06 PM PDT on March 30, 2017 (GMT -0700)
MDOUW1 | | Change Station

Elev 2528 ft 47.62 °N, 119.90 °W | Updated 9 hours ago

Clear
Clear
35.0 °F
Feels Like 26 °F
N
14.0
Wind Variable Wind from WNW
Gusts 19.0 mph

Today
High -- | Low -- °F
--% Chance of Precip.
Yesterday
High -- | Low -- °F
Precip. -- in
Pressure 30.07 in
Visibility 10.0 miles
Clouds Clear
Windchill 26 °F
Dew Point 28.0 °F
Humidity 75%
Rainfall in
Snow Depth Not available.
6:41 AM 7:27 PM
Waxing Crescent, 11% visible
METAR KEAT 302355Z AUTO 30021KT 10SM CLR 13/M03 A3006 RMK AO2 PK WND 30027/2309 SLP181 T01331033 10139 20111 52010
Pressure 30.07 in
Visibility 10.0 miles
Clouds Clear
Windchill 26 °F
Dew Point 28.0 °F
Humidity 75%
Rainfall in
Snow Depth Not available.
6:41 AM 7:27 PM
Waxing Crescent, 11% visible
METAR KEAT 302355Z AUTO 30021KT 10SM CLR 13/M03 A3006 RMK AO2 PK WND 30027/2309 SLP181 T01331033 10139 20111 52010

Get Severe Weather Alerts

Thanks for signing up!

Be on the lookout for a verification email in your inbox.

You'll start receiving the daily forecast at 8 AM.

×

10-Day Weather Forecast

Almanac

Astronomy

Mar. 30, 2017 Rise Set
Actual Time
Civil Twilight
Nautical Twilight
Astronomical Twilight
Moon
Length of Visible Light
Length of Day
Tomorrow will be .
, % of the Moon is Illuminated

Today's Extremes

State Highs State Lows

Community

WunderPhotos

Upload Photos

1,962,540 photos uploaded!

WunderBlog® & News

Nearby

Air Quality

  Air Quality AQ Index Pollutant
Not available.

Snow Depth

Station Depth Elevation

Earthquake Activity

City Distance Mag. Time & Date
Minimum magnitude displayed is 2.5.

Earthquake Activity

City Distance Mag. Time & Date
Minimum magnitude displayed is 2.5.

Coastal Water Temperatures

Place Temperature

Stations

Nearby Weather Stations

Station Location Temp. Windchill Dew Point Humidity Wind Precip. Elev Updated Type
                   

Watches & Warnings

There are currently no watches in effect.